sensor_id;sensor_type;location;lat;lon;timestamp;P1;durP1;ratioP1;P2;durP2;ratioP2
7158;SDS011;63175;52.374;13.132;2024-02-15T00:02:10;6.40;;;5.90;;
7158;SDS011;63175;52.374;13.132;2024-02-15T00:04:37;6.43;;;5.80;;
7158;SDS011;63175;52.374;13.132;2024-02-15T00:07:05;7.10;;;6.13;;
7158;SDS011;63175;52.374;13.132;2024-02-15T00:09:32;7.23;;;5.87;;
7158;SDS011;63175;52.374;13.132;2024-02-15T00:12:00;5.90;;;5.00;;
7158;SDS011;63175;52.374;13.132;2024-02-15T00:14:27;7.70;;;4.57;;
7158;SDS011;63175;52.374;13.132;2024-02-15T00:16:54;6.70;;;4.37;;
7158;SDS011;63175;52.374;13.132;2024-02-15T00:19:21;3.97;;;3.67;;
7158;SDS011;63175;52.374;13.132;2024-02-15T00:21:48;4.57;;;4.17;;
7158;SDS011;63175;52.374;13.132;2024-02-15T00:24:16;3.90;;;3.60;;
7158;SDS011;63175;52.374;13.132;2024-02-15T00:26:43;5.00;;;4.13;;
7158;SDS011;63175;52.374;13.132;2024-02-15T00:29:10;4.67;;;4.37;;
7158;SDS011;63175;52.374;13.132;2024-02-15T00:31:36;4.30;;;4.00;;
7158;SDS011;63175;52.374;13.132;2024-02-15T00:34:04;5.23;;;4.83;;
7158;SDS011;63175;52.374;13.132;2024-02-15T00:36:31;4.63;;;4.17;;
7158;SDS011;63175;52.374;13.132;2024-02-15T00:38:58;4.53;;;4.23;;
7158;SDS011;63175;52.374;13.132;2024-02-15T00:41:26;5.40;;;4.90;;
7158;SDS011;63175;52.374;13.132;2024-02-15T00:43:54;6.63;;;4.60;;
7158;SDS011;63175;52.374;13.132;2024-02-15T00:46:21;5.23;;;4.73;;
7158;SDS011;63175;52.374;13.132;2024-02-15T00:48:47;6.40;;;4.90;;
7158;SDS011;63175;52.374;13.132;2024-02-15T00:51:14;5.10;;;4.50;;
7158;SDS011;63175;52.374;13.132;2024-02-15T00:53:41;6.17;;;5.53;;
7158;SDS011;63175;52.374;13.132;2024-02-15T00:56:08;6.10;;;5.57;;
7158;SDS011;63175;52.374;13.132;2024-02-15T00:58:36;6.47;;;5.93;;
7158;SDS011;63175;52.374;13.132;2024-02-15T01:01:03;6.53;;;6.03;;
7158;SDS011;63175;52.374;13.132;2024-02-15T01:03:30;5.90;;;5.27;;
7158;SDS011;63175;52.374;13.132;2024-02-15T01:05:57;6.40;;;5.80;;
7158;SDS011;63175;52.374;13.132;2024-02-15T01:08:24;6.40;;;5.90;;
7158;SDS011;63175;52.374;13.132;2024-02-15T01:10:49;6.70;;;5.90;;
7158;SDS011;63175;52.374;13.132;2024-02-15T01:13:17;7.70;;;6.90;;
7158;SDS011;63175;52.374;13.132;2024-02-15T01:15:46;9.83;;;7.47;;
7158;SDS011;63175;52.374;13.132;2024-02-15T01:18:12;8.20;;;7.50;;
7158;SDS011;63175;52.374;13.132;2024-02-15T01:20:39;7.13;;;6.27;;
7158;SDS011;63175;52.374;13.132;2024-02-15T01:23:06;9.83;;;6.73;;
7158;SDS011;63175;52.374;13.132;2024-02-15T01:25:34;8.33;;;7.53;;
7158;SDS011;63175;52.374;13.132;2024-02-15T01:28:00;8.60;;;7.10;;
7158;SDS011;63175;52.374;13.132;2024-02-15T01:30:28;7.57;;;6.50;;
7158;SDS011;63175;52.374;13.132;2024-02-15T01:32:56;8.13;;;7.33;;
7158;SDS011;63175;52.374;13.132;2024-02-15T01:35:23;8.47;;;6.47;;
7158;SDS011;63175;52.374;13.132;2024-02-15T01:37:51;11.50;;;7.30;;
7158;SDS011;63175;52.374;13.132;2024-02-15T01:40:18;7.77;;;7.07;;
7158;SDS011;63175;52.374;13.132;2024-02-15T01:42:45;8.93;;;8.03;;
7158;SDS011;63175;52.374;13.132;2024-02-15T01:45:14;7.50;;;6.80;;
7158;SDS011;63175;52.374;13.132;2024-02-15T01:47:42;7.80;;;6.87;;
7158;SDS011;63175;52.374;13.132;2024-02-15T01:50:10;7.50;;;6.90;;
7158;SDS011;63175;52.374;13.132;2024-02-15T01:52:39;7.40;;;6.20;;
7158;SDS011;63175;52.374;13.132;2024-02-15T01:55:07;9.83;;;6.53;;
7158;SDS011;63175;52.374;13.132;2024-02-15T01:57:35;6.10;;;5.60;;
7158;SDS011;63175;52.374;13.132;2024-02-15T02:00:03;7.43;;;6.80;;
7158;SDS011;63175;52.374;13.132;2024-02-15T02:02:31;7.00;;;6.33;;
7158;SDS011;63175;52.374;13.132;2024-02-15T02:05:01;7.17;;;6.43;;
7158;SDS011;63175;52.374;13.132;2024-02-15T02:07:30;6.30;;;5.80;;
7158;SDS011;63175;52.374;13.132;2024-02-15T02:09:56;8.73;;;7.83;;
7158;SDS011;63175;52.374;13.132;2024-02-15T02:12:23;7.43;;;6.60;;
7158;SDS011;63175;52.374;13.132;2024-02-15T02:14:52;7.47;;;6.87;;
7158;SDS011;63175;52.374;13.132;2024-02-15T02:17:19;7.27;;;6.67;;
7158;SDS011;63175;52.374;13.132;2024-02-15T02:19:46;6.77;;;6.37;;
7158;SDS011;63175;52.374;13.132;2024-02-15T02:22:14;8.07;;;7.30;;
7158;SDS011;63175;52.374;13.132;2024-02-15T02:27:23;6.93;;;6.43;;
7158;SDS011;63175;52.374;13.132;2024-02-15T02:29:52;8.60;;;7.10;;
7158;SDS011;63175;52.374;13.132;2024-02-15T02:32:19;7.10;;;6.50;;
7158;SDS011;63175;52.374;13.132;2024-02-15T02:34:46;9.10;;;7.70;;
7158;SDS011;63175;52.374;13.132;2024-02-15T02:37:13;7.60;;;6.90;;
7158;SDS011;63175;52.374;13.132;2024-02-15T02:39:40;8.70;;;8.00;;
7158;SDS011;63175;52.374;13.132;2024-02-15T02:42:10;7.00;;;6.47;;
7158;SDS011;63175;52.374;13.132;2024-02-15T02:44:37;6.43;;;6.03;;
7158;SDS011;63175;52.374;13.132;2024-02-15T02:47:03;6.80;;;6.20;;
7158;SDS011;63175;52.374;13.132;2024-02-15T02:49:30;6.60;;;6.10;;
7158;SDS011;63175;52.374;13.132;2024-02-15T02:51:57;6.43;;;5.93;;
7158;SDS011;63175;52.374;13.132;2024-02-15T02:54:24;7.90;;;7.27;;
7158;SDS011;63175;52.374;13.132;2024-02-15T02:56:51;7.97;;;7.37;;
7158;SDS011;63175;52.374;13.132;2024-02-15T02:59:19;7.50;;;6.90;;
7158;SDS011;63175;52.374;13.132;2024-02-15T03:01:46;6.93;;;6.33;;
7158;SDS011;63175;52.374;13.132;2024-02-15T03:04:14;7.37;;;6.87;;
7158;SDS011;63175;52.374;13.132;2024-02-15T03:06:42;6.07;;;5.63;;
7158;SDS011;63175;52.374;13.132;2024-02-15T03:09:09;6.60;;;6.00;;
7158;SDS011;63175;52.374;13.132;2024-02-15T03:11:36;7.20;;;6.60;;
7158;SDS011;63175;52.374;13.132;2024-02-15T03:14:03;6.30;;;5.80;;
7158;SDS011;63175;52.374;13.132;2024-02-15T03:16:31;6.23;;;5.73;;
7158;SDS011;63175;52.374;13.132;2024-02-15T03:18:58;6.50;;;5.90;;
7158;SDS011;63175;52.374;13.132;2024-02-15T03:21:27;6.23;;;5.83;;
7158;SDS011;63175;52.374;13.132;2024-02-15T03:23:54;6.90;;;6.30;;
7158;SDS011;63175;52.374;13.132;2024-02-15T03:26:28;6.33;;;5.83;;
7158;SDS011;63175;52.374;13.132;2024-02-15T03:28:56;8.13;;;7.43;;
7158;SDS011;63175;52.374;13.132;2024-02-15T03:31:23;8.30;;;7.60;;
7158;SDS011;63175;52.374;13.132;2024-02-15T03:33:51;8.23;;;7.43;;
7158;SDS011;63175;52.374;13.132;2024-02-15T03:36:19;7.33;;;6.63;;
7158;SDS011;63175;52.374;13.132;2024-02-15T03:38:46;6.37;;;5.87;;
7158;SDS011;63175;52.374;13.132;2024-02-15T03:41:13;7.03;;;6.43;;
7158;SDS011;63175;52.374;13.132;2024-02-15T03:43:40;7.27;;;6.60;;
7158;SDS011;63175;52.374;13.132;2024-02-15T03:46:08;6.63;;;6.13;;
7158;SDS011;63175;52.374;13.132;2024-02-15T03:48:37;6.40;;;6.00;;
7158;SDS011;63175;52.374;13.132;2024-02-15T03:51:05;6.57;;;6.17;;
7158;SDS011;63175;52.374;13.132;2024-02-15T03:53:34;5.30;;;4.80;;
7158;SDS011;63175;52.374;13.132;2024-02-15T03:56:03;5.77;;;5.37;;
7158;SDS011;63175;52.374;13.132;2024-02-15T03:58:30;5.53;;;5.07;;
7158;SDS011;63175;52.374;13.132;2024-02-15T04:00:58;6.13;;;5.63;;
7158;SDS011;63175;52.374;13.132;2024-02-15T04:03:24;7.10;;;6.50;;
7158;SDS011;63175;52.374;13.132;2024-02-15T04:05:51;7.40;;;6.80;;
7158;SDS011;63175;52.374;13.132;2024-02-15T04:08:21;7.97;;;7.20;;
7158;SDS011;63175;52.374;13.132;2024-02-15T04:10:48;7.33;;;6.73;;
7158;SDS011;63175;52.374;13.132;2024-02-15T04:13:16;9.50;;;6.50;;
7158;SDS011;63175;52.374;13.132;2024-02-15T04:15:42;6.33;;;5.90;;
7158;SDS011;63175;52.374;13.132;2024-02-15T04:18:12;6.10;;;5.60;;
7158;SDS011;63175;52.374;13.132;2024-02-15T04:20:39;6.93;;;6.33;;
7158;SDS011;63175;52.374;13.132;2024-02-15T04:23:09;6.03;;;5.57;;
7158;SDS011;63175;52.374;13.132;2024-02-15T04:25:38;7.17;;;6.57;;
7158;SDS011;63175;52.374;13.132;2024-02-15T04:28:05;8.20;;;7.50;;
7158;SDS011;63175;52.374;13.132;2024-02-15T04:30:34;6.73;;;6.13;;
7158;SDS011;63175;52.374;13.132;2024-02-15T04:33:03;6.90;;;6.27;;
7158;SDS011;63175;52.374;13.132;2024-02-15T04:35:30;7.20;;;6.70;;
7158;SDS011;63175;52.374;13.132;2024-02-15T04:37:57;6.70;;;6.20;;
7158;SDS011;63175;52.374;13.132;2024-02-15T04:40:24;7.40;;;6.70;;
7158;SDS011;63175;52.374;13.132;2024-02-15T04:42:52;6.40;;;5.80;;
7158;SDS011;63175;52.374;13.132;2024-02-15T04:45:19;6.23;;;5.70;;
7158;SDS011;63175;52.374;13.132;2024-02-15T04:47:47;5.70;;;5.33;;
7158;SDS011;63175;52.374;13.132;2024-02-15T04:50:17;7.00;;;6.50;;
7158;SDS011;63175;52.374;13.132;2024-02-15T04:52:45;7.93;;;7.20;;
7158;SDS011;63175;52.374;13.132;2024-02-15T04:55:14;8.37;;;7.57;;
7158;SDS011;63175;52.374;13.132;2024-02-15T04:57:42;8.00;;;6.80;;
7158;SDS011;63175;52.374;13.132;2024-02-15T05:00:14;8.43;;;7.70;;
7158;SDS011;63175;52.374;13.132;2024-02-15T05:02:45;9.53;;;7.63;;
7158;SDS011;63175;52.374;13.132;2024-02-15T05:05:12;7.10;;;6.50;;
7158;SDS011;63175;52.374;13.132;2024-02-15T05:07:39;8.73;;;7.17;;
7158;SDS011;63175;52.374;13.132;2024-02-15T05:10:08;7.67;;;6.40;;
7158;SDS011;63175;52.374;13.132;2024-02-15T05:12:35;8.20;;;7.37;;
7158;SDS011;63175;52.374;13.132;2024-02-15T05:15:03;6.30;;;5.80;;
7158;SDS011;63175;52.374;13.132;2024-02-15T05:17:36;6.93;;;6.33;;
7158;SDS011;63175;52.374;13.132;2024-02-15T05:20:06;5.53;;;5.17;;
7158;SDS011;63175;52.374;13.132;2024-02-15T05:22:36;6.00;;;5.50;;
7158;SDS011;63175;52.374;13.132;2024-02-15T05:25:04;6.60;;;6.00;;
7158;SDS011;63175;52.374;13.132;2024-02-15T05:27:33;6.23;;;5.70;;
7158;SDS011;63175;52.374;13.132;2024-02-15T05:30:01;6.93;;;6.33;;
7158;SDS011;63175;52.374;13.132;2024-02-15T05:32:31;5.70;;;5.20;;
7158;SDS011;63175;52.374;13.132;2024-02-15T05:35:00;6.43;;;5.90;;
7158;SDS011;63175;52.374;13.132;2024-02-15T05:37:27;7.87;;;6.73;;
7158;SDS011;63175;52.374;13.132;2024-02-15T05:39:53;8.53;;;7.70;;
7158;SDS011;63175;52.374;13.132;2024-02-15T05:42:20;5.70;;;5.27;;
7158;SDS011;63175;52.374;13.132;2024-02-15T05:44:49;6.40;;;5.90;;
7158;SDS011;63175;52.374;13.132;2024-02-15T05:47:16;6.97;;;6.30;;
7158;SDS011;63175;52.374;13.132;2024-02-15T05:49:43;8.10;;;6.63;;
7158;SDS011;63175;52.374;13.132;2024-02-15T05:52:12;7.00;;;6.40;;
7158;SDS011;63175;52.374;13.132;2024-02-15T05:54:39;8.07;;;7.30;;
7158;SDS011;63175;52.374;13.132;2024-02-15T05:57:07;6.90;;;6.27;;
7158;SDS011;63175;52.374;13.132;2024-02-15T05:59:34;7.40;;;6.70;;
7158;SDS011;63175;52.374;13.132;2024-02-15T06:02:00;8.17;;;7.43;;
7158;SDS011;63175;52.374;13.132;2024-02-15T06:04:28;7.13;;;6.53;;
7158;SDS011;63175;52.374;13.132;2024-02-15T06:06:55;6.80;;;6.30;;
7158;SDS011;63175;52.374;13.132;2024-02-15T06:09:27;5.67;;;5.27;;
7158;SDS011;63175;52.374;13.132;2024-02-15T06:11:55;7.03;;;6.47;;
7158;SDS011;63175;52.374;13.132;2024-02-15T06:14:23;6.70;;;6.20;;
7158;SDS011;63175;52.374;13.132;2024-02-15T06:16:50;11.03;;;6.73;;
7158;SDS011;63175;52.374;13.132;2024-02-15T06:19:20;7.20;;;6.53;;
7158;SDS011;63175;52.374;13.132;2024-02-15T06:21:47;5.77;;;5.37;;
7158;SDS011;63175;52.374;13.132;2024-02-15T06:24:14;7.00;;;6.40;;
7158;SDS011;63175;52.374;13.132;2024-02-15T06:26:42;6.70;;;6.07;;
7158;SDS011;63175;52.374;13.132;2024-02-15T06:29:09;6.33;;;5.83;;
7158;SDS011;63175;52.374;13.132;2024-02-15T06:31:54;5.90;;;5.40;;
7158;SDS011;63175;52.374;13.132;2024-02-15T06:34:38;5.33;;;4.93;;
7158;SDS011;63175;52.374;13.132;2024-02-15T06:37:35;6.13;;;5.53;;
7158;SDS011;63175;52.374;13.132;2024-02-15T06:40:20;8.43;;;7.40;;
7158;SDS011;63175;52.374;13.132;2024-02-15T06:42:49;7.77;;;7.07;;
7158;SDS011;63175;52.374;13.132;2024-02-15T06:45:16;7.37;;;6.67;;
7158;SDS011;63175;52.374;13.132;2024-02-15T06:47:44;7.60;;;6.90;;
7158;SDS011;63175;52.374;13.132;2024-02-15T06:50:12;5.93;;;5.53;;
7158;SDS011;63175;52.374;13.132;2024-02-15T06:52:39;7.17;;;6.60;;
7158;SDS011;63175;52.374;13.132;2024-02-15T06:55:06;6.30;;;5.90;;
7158;SDS011;63175;52.374;13.132;2024-02-15T06:57:36;6.10;;;5.60;;
7158;SDS011;63175;52.374;13.132;2024-02-15T07:00:08;6.77;;;6.17;;
7158;SDS011;63175;52.374;13.132;2024-02-15T07:02:40;6.50;;;5.90;;
7158;SDS011;63175;52.374;13.132;2024-02-15T07:05:09;5.43;;;5.13;;
7158;SDS011;63175;52.374;13.132;2024-02-15T07:07:36;7.20;;;6.60;;
7158;SDS011;63175;52.374;13.132;2024-02-15T07:10:04;7.87;;;6.93;;
7158;SDS011;63175;52.374;13.132;2024-02-15T07:12:31;7.07;;;6.47;;
7158;SDS011;63175;52.374;13.132;2024-02-15T07:14:58;6.73;;;6.13;;
7158;SDS011;63175;52.374;13.132;2024-02-15T07:17:27;6.43;;;5.93;;
7158;SDS011;63175;52.374;13.132;2024-02-15T07:19:54;6.47;;;5.90;;
7158;SDS011;63175;52.374;13.132;2024-02-15T07:22:21;6.50;;;6.00;;
7158;SDS011;63175;52.374;13.132;2024-02-15T07:24:48;7.60;;;5.80;;
7158;SDS011;63175;52.374;13.132;2024-02-15T07:27:15;5.67;;;5.27;;
7158;SDS011;63175;52.374;13.132;2024-02-15T07:29:43;7.10;;;5.80;;
7158;SDS011;63175;52.374;13.132;2024-02-15T07:32:10;5.50;;;5.07;;
7158;SDS011;63175;52.374;13.132;2024-02-15T07:34:39;5.97;;;5.37;;
7158;SDS011;63175;52.374;13.132;2024-02-15T07:37:06;11.73;;;6.70;;
7158;SDS011;63175;52.374;13.132;2024-02-15T07:39:34;6.60;;;6.00;;
7158;SDS011;63175;52.374;13.132;2024-02-15T07:42:01;7.03;;;6.50;;
7158;SDS011;63175;52.374;13.132;2024-02-15T07:44:29;13.03;;;5.63;;
7158;SDS011;63175;52.374;13.132;2024-02-15T07:46:57;4.43;;;4.20;;
7158;SDS011;63175;52.374;13.132;2024-02-15T07:49:25;5.30;;;4.90;;
7158;SDS011;63175;52.374;13.132;2024-02-15T07:51:53;5.47;;;5.07;;
7158;SDS011;63175;52.374;13.132;2024-02-15T07:54:20;5.40;;;5.00;;
7158;SDS011;63175;52.374;13.132;2024-02-15T07:56:49;6.73;;;6.13;;
7158;SDS011;63175;52.374;13.132;2024-02-15T07:59:16;6.43;;;5.83;;
7158;SDS011;63175;52.374;13.132;2024-02-15T08:01:44;6.23;;;5.60;;
7158;SDS011;63175;52.374;13.132;2024-02-15T08:04:12;7.23;;;5.90;;
7158;SDS011;63175;52.374;13.132;2024-02-15T08:06:39;5.20;;;4.90;;
7158;SDS011;63175;52.374;13.132;2024-02-15T08:09:08;6.57;;;5.97;;
7158;SDS011;63175;52.374;13.132;2024-02-15T08:11:38;5.47;;;5.10;;
7158;SDS011;63175;52.374;13.132;2024-02-15T08:14:06;6.67;;;6.07;;
7158;SDS011;63175;52.374;13.132;2024-02-15T08:16:36;6.67;;;6.17;;
7158;SDS011;63175;52.374;13.132;2024-02-15T08:19:05;6.70;;;6.20;;
7158;SDS011;63175;52.374;13.132;2024-02-15T08:21:32;6.83;;;6.23;;
7158;SDS011;63175;52.374;13.132;2024-02-15T08:24:01;5.80;;;5.30;;
7158;SDS011;63175;52.374;13.132;2024-02-15T08:26:32;5.10;;;4.80;;
7158;SDS011;63175;52.374;13.132;2024-02-15T08:29:00;5.73;;;5.27;;
7158;SDS011;63175;52.374;13.132;2024-02-15T08:31:28;4.40;;;4.10;;
7158;SDS011;63175;52.374;13.132;2024-02-15T08:33:55;5.23;;;4.87;;
7158;SDS011;63175;52.374;13.132;2024-02-15T08:36:21;5.30;;;4.90;;
7158;SDS011;63175;52.374;13.132;2024-02-15T08:38:48;5.97;;;5.47;;
7158;SDS011;63175;52.374;13.132;2024-02-15T08:41:16;6.20;;;5.80;;
7158;SDS011;63175;52.374;13.132;2024-02-15T08:43:47;5.53;;;5.13;;
7158;SDS011;63175;52.374;13.132;2024-02-15T08:46:14;6.33;;;5.57;;
7158;SDS011;63175;52.374;13.132;2024-02-15T08:48:41;4.83;;;4.53;;
7158;SDS011;63175;52.374;13.132;2024-02-15T08:51:08;5.17;;;4.77;;
7158;SDS011;63175;52.374;13.132;2024-02-15T08:53:35;5.63;;;5.13;;
7158;SDS011;63175;52.374;13.132;2024-02-15T08:56:02;5.63;;;5.23;;
7158;SDS011;63175;52.374;13.132;2024-02-15T08:58:30;5.57;;;5.17;;
7158;SDS011;63175;52.374;13.132;2024-02-15T09:00:58;4.73;;;4.43;;
7158;SDS011;63175;52.374;13.132;2024-02-15T09:03:25;4.80;;;4.50;;
7158;SDS011;63175;52.374;13.132;2024-02-15T09:05:52;6.03;;;4.97;;
7158;SDS011;63175;52.374;13.132;2024-02-15T09:08:19;5.03;;;4.63;;
7158;SDS011;63175;52.374;13.132;2024-02-15T09:10:46;4.70;;;4.40;;
7158;SDS011;63175;52.374;13.132;2024-02-15T09:13:13;6.30;;;5.10;;
7158;SDS011;63175;52.374;13.132;2024-02-15T09:15:40;4.23;;;3.93;;
7158;SDS011;63175;52.374;13.132;2024-02-15T09:18:08;9.20;;;5.40;;
7158;SDS011;63175;52.374;13.132;2024-02-15T09:20:35;4.50;;;4.20;;
7158;SDS011;63175;52.374;13.132;2024-02-15T09:23:05;4.90;;;4.50;;
7158;SDS011;63175;52.374;13.132;2024-02-15T09:25:34;4.70;;;4.40;;
7158;SDS011;63175;52.374;13.132;2024-02-15T09:28:04;4.73;;;4.43;;
7158;SDS011;63175;52.374;13.132;2024-02-15T09:30:31;4.33;;;4.03;;
7158;SDS011;63175;52.374;13.132;2024-02-15T09:33:00;4.47;;;4.17;;
7158;SDS011;63175;52.374;13.132;2024-02-15T09:35:31;4.57;;;4.20;;
7158;SDS011;63175;52.374;13.132;2024-02-15T09:37:58;5.10;;;4.80;;
7158;SDS011;63175;52.374;13.132;2024-02-15T09:40:25;4.70;;;4.00;;
7158;SDS011;63175;52.374;13.132;2024-02-15T09:42:54;4.53;;;4.20;;
7158;SDS011;63175;52.374;13.132;2024-02-15T09:45:21;5.87;;;4.23;;
7158;SDS011;63175;52.374;13.132;2024-02-15T09:47:49;4.53;;;4.00;;
7158;SDS011;63175;52.374;13.132;2024-02-15T09:50:18;4.50;;;4.20;;
7158;SDS011;63175;52.374;13.132;2024-02-15T09:52:47;4.07;;;3.77;;
7158;SDS011;63175;52.374;13.132;2024-02-15T09:55:14;4.50;;;4.10;;
7158;SDS011;63175;52.374;13.132;2024-02-15T09:57:42;3.87;;;3.57;;
7158;SDS011;63175;52.374;13.132;2024-02-15T10:00:11;3.80;;;3.60;;
7158;SDS011;63175;52.374;13.132;2024-02-15T10:02:40;4.00;;;3.70;;
7158;SDS011;63175;52.374;13.132;2024-02-15T10:05:09;3.30;;;3.10;;
7158;SDS011;63175;52.374;13.132;2024-02-15T10:07:37;3.67;;;3.43;;
7158;SDS011;63175;52.374;13.132;2024-02-15T10:10:15;3.83;;;3.53;;
7158;SDS011;63175;52.374;13.132;2024-02-15T10:12:44;3.20;;;3.00;;
7158;SDS011;63175;52.374;13.132;2024-02-15T10:15:21;3.30;;;3.10;;
7158;SDS011;63175;52.374;13.132;2024-02-15T10:17:54;6.13;;;3.67;;
7158;SDS011;63175;52.374;13.132;2024-02-15T10:20:21;3.50;;;3.20;;
7158;SDS011;63175;52.374;13.132;2024-02-15T10:22:50;2.90;;;2.80;;
7158;SDS011;63175;52.374;13.132;2024-02-15T10:25:19;3.33;;;3.13;;
7158;SDS011;63175;52.374;13.132;2024-02-15T10:27:47;3.00;;;2.80;;
7158;SDS011;63175;52.374;13.132;2024-02-15T10:30:15;2.47;;;2.37;;
7158;SDS011;63175;52.374;13.132;2024-02-15T10:32:43;2.70;;;2.50;;
7158;SDS011;63175;52.374;13.132;2024-02-15T10:35:10;2.77;;;2.57;;
7158;SDS011;63175;52.374;13.132;2024-02-15T10:37:44;2.20;;;2.10;;
7158;SDS011;63175;52.374;13.132;2024-02-15T10:40:12;2.43;;;2.33;;
7158;SDS011;63175;52.374;13.132;2024-02-15T10:42:41;2.33;;;2.23;;
7158;SDS011;63175;52.374;13.132;2024-02-15T10:45:11;2.50;;;2.40;;
7158;SDS011;63175;52.374;13.132;2024-02-15T10:47:42;2.60;;;2.47;;
7158;SDS011;63175;52.374;13.132;2024-02-15T10:50:11;2.60;;;2.50;;
7158;SDS011;63175;52.374;13.132;2024-02-15T10:52:40;2.17;;;2.00;;
7158;SDS011;63175;52.374;13.132;2024-02-15T10:55:22;2.50;;;2.40;;
7158;SDS011;63175;52.374;13.132;2024-02-15T10:58:00;2.37;;;2.17;;
7158;SDS011;63175;52.374;13.132;2024-02-15T11:00:30;2.30;;;2.20;;
7158;SDS011;63175;52.374;13.132;2024-02-15T11:03:02;1.90;;;1.80;;
7158;SDS011;63175;52.374;13.132;2024-02-15T11:05:31;1.93;;;1.83;;
7158;SDS011;63175;52.374;13.132;2024-02-15T11:08:01;2.37;;;2.00;;
7158;SDS011;63175;52.374;13.132;2024-02-15T11:10:30;2.47;;;2.27;;
7158;SDS011;63175;52.374;13.132;2024-02-15T11:12:57;2.37;;;2.17;;
7158;SDS011;63175;52.374;13.132;2024-02-15T11:15:42;2.00;;;1.90;;
7158;SDS011;63175;52.374;13.132;2024-02-15T11:21:08;2.23;;;2.10;;
7158;SDS011;63175;52.374;13.132;2024-02-15T11:23:35;2.20;;;2.10;;
7158;SDS011;63175;52.374;13.132;2024-02-15T11:26:02;2.40;;;2.30;;
7158;SDS011;63175;52.374;13.132;2024-02-15T11:28:35;3.00;;;2.80;;
7158;SDS011;63175;52.374;13.132;2024-02-15T11:31:09;2.70;;;2.40;;
7158;SDS011;63175;52.374;13.132;2024-02-15T11:33:38;3.00;;;2.17;;
7158;SDS011;63175;52.374;13.132;2024-02-15T11:36:05;2.43;;;2.17;;
7158;SDS011;63175;52.374;13.132;2024-02-15T11:38:33;2.50;;;2.10;;
7158;SDS011;63175;52.374;13.132;2024-02-15T11:41:04;1.70;;;1.60;;
7158;SDS011;63175;52.374;13.132;2024-02-15T11:43:49;1.80;;;1.70;;
7158;SDS011;63175;52.374;13.132;2024-02-15T11:46:21;2.40;;;1.50;;
7158;SDS011;63175;52.374;13.132;2024-02-15T11:48:49;2.80;;;1.53;;
7158;SDS011;63175;52.374;13.132;2024-02-15T11:51:27;1.73;;;1.63;;
7158;SDS011;63175;52.374;13.132;2024-02-15T11:53:58;2.00;;;1.90;;
7158;SDS011;63175;52.374;13.132;2024-02-15T11:56:32;1.70;;;1.60;;
7158;SDS011;63175;52.374;13.132;2024-02-15T11:59:18;2.77;;;1.70;;
7158;SDS011;63175;52.374;13.132;2024-02-15T12:01:54;1.57;;;1.47;;
7158;SDS011;63175;52.374;13.132;2024-02-15T12:04:39;1.43;;;1.43;;
7158;SDS011;63175;52.374;13.132;2024-02-15T12:07:23;1.57;;;1.47;;
7158;SDS011;63175;52.374;13.132;2024-02-15T12:10:14;1.87;;;1.73;;
7158;SDS011;63175;52.374;13.132;2024-02-15T12:12:59;1.60;;;1.50;;
7158;SDS011;63175;52.374;13.132;2024-02-15T12:15:56;1.40;;;1.40;;
7158;SDS011;63175;52.374;13.132;2024-02-15T12:18:42;3.27;;;1.57;;
7158;SDS011;63175;52.374;13.132;2024-02-15T12:21:10;2.57;;;1.80;;
7158;SDS011;63175;52.374;13.132;2024-02-15T12:23:40;1.33;;;1.33;;
7158;SDS011;63175;52.374;13.132;2024-02-15T12:26:08;2.70;;;2.37;;
7158;SDS011;63175;52.374;13.132;2024-02-15T12:28:35;3.00;;;2.90;;
7158;SDS011;63175;52.374;13.132;2024-02-15T12:31:03;1.40;;;1.40;;
7158;SDS011;63175;52.374;13.132;2024-02-15T12:33:32;2.47;;;2.27;;
7158;SDS011;63175;52.374;13.132;2024-02-15T12:36:06;3.17;;;2.40;;
7158;SDS011;63175;52.374;13.132;2024-02-15T12:38:34;1.70;;;1.60;;
7158;SDS011;63175;52.374;13.132;2024-02-15T12:41:02;1.40;;;1.40;;
7158;SDS011;63175;52.374;13.132;2024-02-15T12:43:30;1.90;;;1.80;;
7158;SDS011;63175;52.374;13.132;2024-02-15T12:45:57;1.80;;;1.70;;
7158;SDS011;63175;52.374;13.132;2024-02-15T12:48:26;2.53;;;2.33;;
7158;SDS011;63175;52.374;13.132;2024-02-15T12:50:52;1.83;;;1.70;;
7158;SDS011;63175;52.374;13.132;2024-02-15T12:53:21;2.80;;;2.17;;
7158;SDS011;63175;52.374;13.132;2024-02-15T12:55:52;2.00;;;1.80;;
7158;SDS011;63175;52.374;13.132;2024-02-15T12:58:21;2.80;;;2.07;;
7158;SDS011;63175;52.374;13.132;2024-02-15T13:00:49;3.20;;;2.10;;
7158;SDS011;63175;52.374;13.132;2024-02-15T13:03:20;3.00;;;2.57;;
7158;SDS011;63175;52.374;13.132;2024-02-15T13:05:48;2.63;;;2.43;;
7158;SDS011;63175;52.374;13.132;2024-02-15T13:08:17;2.47;;;2.20;;
7158;SDS011;63175;52.374;13.132;2024-02-15T13:10:45;2.17;;;2.07;;
7158;SDS011;63175;52.374;13.132;2024-02-15T13:13:12;2.07;;;1.97;;
7158;SDS011;63175;52.374;13.132;2024-02-15T13:15:41;2.60;;;1.80;;
7158;SDS011;63175;52.374;13.132;2024-02-15T13:18:09;1.80;;;1.70;;
7158;SDS011;63175;52.374;13.132;2024-02-15T13:20:38;3.93;;;2.50;;
7158;SDS011;63175;52.374;13.132;2024-02-15T13:23:07;2.30;;;2.10;;
7158;SDS011;63175;52.374;13.132;2024-02-15T13:25:36;2.00;;;1.90;;
7158;SDS011;63175;52.374;13.132;2024-02-15T13:28:04;3.40;;;2.93;;
7158;SDS011;63175;52.374;13.132;2024-02-15T13:30:34;2.53;;;2.33;;
7158;SDS011;63175;52.374;13.132;2024-02-15T13:33:00;2.37;;;2.27;;
7158;SDS011;63175;52.374;13.132;2024-02-15T13:35:28;2.60;;;2.50;;
7158;SDS011;63175;52.374;13.132;2024-02-15T13:37:55;2.80;;;2.60;;
7158;SDS011;63175;52.374;13.132;2024-02-15T13:40:25;3.10;;;2.77;;
7158;SDS011;63175;52.374;13.132;2024-02-15T13:42:54;2.80;;;2.60;;
7158;SDS011;63175;52.374;13.132;2024-02-15T13:45:24;2.40;;;2.20;;
7158;SDS011;63175;52.374;13.132;2024-02-15T13:47:57;2.80;;;2.60;;
7158;SDS011;63175;52.374;13.132;2024-02-15T13:50:28;2.90;;;2.70;;
7158;SDS011;63175;52.374;13.132;2024-02-15T13:52:55;6.07;;;2.70;;
7158;SDS011;63175;52.374;13.132;2024-02-15T13:55:23;3.60;;;2.90;;
7158;SDS011;63175;52.374;13.132;2024-02-15T13:57:52;2.80;;;2.60;;
7158;SDS011;63175;52.374;13.132;2024-02-15T14:00:20;2.67;;;2.53;;
7158;SDS011;63175;52.374;13.132;2024-02-15T14:02:48;3.53;;;3.10;;
7158;SDS011;63175;52.374;13.132;2024-02-15T14:05:15;2.43;;;2.10;;
7158;SDS011;63175;52.374;13.132;2024-02-15T14:07:45;3.23;;;2.20;;
7158;SDS011;63175;52.374;13.132;2024-02-15T14:10:13;2.60;;;2.17;;
7158;SDS011;63175;52.374;13.132;2024-02-15T14:12:41;2.73;;;2.47;;
7158;SDS011;63175;52.374;13.132;2024-02-15T14:15:08;2.60;;;2.40;;
7158;SDS011;63175;52.374;13.132;2024-02-15T14:17:36;4.17;;;2.57;;
7158;SDS011;63175;52.374;13.132;2024-02-15T14:20:04;2.47;;;2.30;;
7158;SDS011;63175;52.374;13.132;2024-02-15T14:22:33;2.90;;;2.70;;
7158;SDS011;63175;52.374;13.132;2024-02-15T14:25:00;5.27;;;2.77;;
7158;SDS011;63175;52.374;13.132;2024-02-15T14:27:29;2.97;;;2.60;;
7158;SDS011;63175;52.374;13.132;2024-02-15T14:29:58;3.57;;;3.00;;
7158;SDS011;63175;52.374;13.132;2024-02-15T14:32:43;2.80;;;2.60;;
7158;SDS011;63175;52.374;13.132;2024-02-15T14:35:28;3.90;;;3.30;;
7158;SDS011;63175;52.374;13.132;2024-02-15T14:37:57;4.57;;;2.50;;
7158;SDS011;63175;52.374;13.132;2024-02-15T14:40:24;5.07;;;2.57;;
7158;SDS011;63175;52.374;13.132;2024-02-15T14:42:51;5.07;;;3.00;;
7158;SDS011;63175;52.374;13.132;2024-02-15T14:45:19;3.43;;;3.00;;
7158;SDS011;63175;52.374;13.132;2024-02-15T14:47:47;2.40;;;2.20;;
7158;SDS011;63175;52.374;13.132;2024-02-15T14:50:14;2.90;;;2.57;;
7158;SDS011;63175;52.374;13.132;2024-02-15T14:52:41;4.47;;;2.40;;
7158;SDS011;63175;52.374;13.132;2024-02-15T14:55:08;2.57;;;2.40;;
7158;SDS011;63175;52.374;13.132;2024-02-15T14:57:35;2.57;;;2.40;;
7158;SDS011;63175;52.374;13.132;2024-02-15T15:00:04;1.93;;;1.83;;
7158;SDS011;63175;52.374;13.132;2024-02-15T15:02:37;2.20;;;1.90;;
7158;SDS011;63175;52.374;13.132;2024-02-15T15:05:04;2.47;;;2.27;;